sensor_id;sensor_type;location;lat;lon;timestamp;temperature;humidity
1570;DHT22;778;50.120;8.698;2022-07-17T00:01:13;18.60;59.90
1570;DHT22;778;50.120;8.698;2022-07-17T00:03:41;18.70;60.00
1570;DHT22;778;50.120;8.698;2022-07-17T00:06:10;18.60;59.90
1570;DHT22;778;50.120;8.698;2022-07-17T00:08:38;18.60;59.90
1570;DHT22;778;50.120;8.698;2022-07-17T00:11:07;18.60;59.90
1570;DHT22;778;50.120;8.698;2022-07-17T00:13:37;18.60;59.90
1570;DHT22;778;50.120;8.698;2022-07-17T00:16:07;18.50;60.00
1570;DHT22;778;50.120;8.698;2022-07-17T00:18:36;18.40;60.30
1570;DHT22;778;50.120;8.698;2022-07-17T00:21:05;18.50;60.50
1570;DHT22;778;50.120;8.698;2022-07-17T00:23:33;18.40;60.30
1570;DHT22;778;50.120;8.698;2022-07-17T00:26:02;18.40;60.50
1570;DHT22;778;50.120;8.698;2022-07-17T00:28:31;18.30;60.50
1570;DHT22;778;50.120;8.698;2022-07-17T00:31:02;18.40;60.40
1570;DHT22;778;50.120;8.698;2022-07-17T00:33:31;18.30;60.50
1570;DHT22;778;50.120;8.698;2022-07-17T00:36:00;18.30;60.60
1570;DHT22;778;50.120;8.698;2022-07-17T00:38:28;18.20;60.70
1570;DHT22;778;50.120;8.698;2022-07-17T00:40:57;18.20;60.70
1570;DHT22;778;50.120;8.698;2022-07-17T00:43:27;18.30;60.50
1570;DHT22;778;50.120;8.698;2022-07-17T00:45:57;18.30;61.30
1570;DHT22;778;50.120;8.698;2022-07-17T00:48:28;18.30;60.50
1570;DHT22;778;50.120;8.698;2022-07-17T00:50:57;18.20;60.70
1570;DHT22;778;50.120;8.698;2022-07-17T00:53:27;18.20;60.60
1570;DHT22;778;50.120;8.698;2022-07-17T00:55:57;18.20;60.80
1570;DHT22;778;50.120;8.698;2022-07-17T00:58:26;18.20;60.80
1570;DHT22;778;50.120;8.698;2022-07-17T01:00:56;18.20;60.80
1570;DHT22;778;50.120;8.698;2022-07-17T01:03:25;18.10;60.80
1570;DHT22;778;50.120;8.698;2022-07-17T01:05:55;18.10;61.10
1570;DHT22;778;50.120;8.698;2022-07-17T01:08:24;18.10;61.10
1570;DHT22;778;50.120;8.698;2022-07-17T01:10:53;18.10;60.90
1570;DHT22;778;50.120;8.698;2022-07-17T01:13:22;18.10;61.80
1570;DHT22;778;50.120;8.698;2022-07-17T01:15:51;18.00;60.90
1570;DHT22;778;50.120;8.698;2022-07-17T01:18:20;18.00;61.30
1570;DHT22;778;50.120;8.698;2022-07-17T01:20:49;18.00;61.10
1570;DHT22;778;50.120;8.698;2022-07-17T01:23:20;18.00;61.30
1570;DHT22;778;50.120;8.698;2022-07-17T01:25:49;18.00;61.30
1570;DHT22;778;50.120;8.698;2022-07-17T01:28:17;18.00;61.50
1570;DHT22;778;50.120;8.698;2022-07-17T01:30:47;18.10;61.30
1570;DHT22;778;50.120;8.698;2022-07-17T01:33:19;18.10;61.50
1570;DHT22;778;50.120;8.698;2022-07-17T01:35:50;18.20;63.10
1570;DHT22;778;50.120;8.698;2022-07-17T01:38:20;18.40;64.50
1570;DHT22;778;50.120;8.698;2022-07-17T01:40:49;18.50;62.60
1570;DHT22;778;50.120;8.698;2022-07-17T01:43:18;18.50;62.80
1570;DHT22;778;50.120;8.698;2022-07-17T01:45:48;18.40;62.60
1570;DHT22;778;50.120;8.698;2022-07-17T01:48:24;18.40;63.20
1570;DHT22;778;50.120;8.698;2022-07-17T01:50:54;18.60;61.70
1570;DHT22;778;50.120;8.698;2022-07-17T01:53:24;18.60;62.00
1570;DHT22;778;50.120;8.698;2022-07-17T01:55:52;18.50;61.40
1570;DHT22;778;50.120;8.698;2022-07-17T01:58:21;18.40;62.00
1570;DHT22;778;50.120;8.698;2022-07-17T02:00:50;18.30;62.50
1570;DHT22;778;50.120;8.698;2022-07-17T02:03:19;18.30;62.80
1570;DHT22;778;50.120;8.698;2022-07-17T02:05:48;18.50;61.80
1570;DHT22;778;50.120;8.698;2022-07-17T02:08:16;18.50;62.70
1570;DHT22;778;50.120;8.698;2022-07-17T02:10:46;18.40;62.30
1570;DHT22;778;50.120;8.698;2022-07-17T02:13:15;18.30;62.10
1570;DHT22;778;50.120;8.698;2022-07-17T02:15:43;18.30;62.50
1570;DHT22;778;50.120;8.698;2022-07-17T02:18:12;18.20;62.20
1570;DHT22;778;50.120;8.698;2022-07-17T02:20:41;18.10;63.70
1570;DHT22;778;50.120;8.698;2022-07-17T02:23:13;18.20;62.50
1570;DHT22;778;50.120;8.698;2022-07-17T02:25:42;18.20;62.50
1570;DHT22;778;50.120;8.698;2022-07-17T02:28:12;18.20;62.50
1570;DHT22;778;50.120;8.698;2022-07-17T02:30:41;18.10;62.60
1570;DHT22;778;50.120;8.698;2022-07-17T02:33:09;18.00;62.70
1570;DHT22;778;50.120;8.698;2022-07-17T02:35:38;17.90;62.70
1570;DHT22;778;50.120;8.698;2022-07-17T02:38:07;17.90;63.20
1570;DHT22;778;50.120;8.698;2022-07-17T02:40:35;17.80;63.60
1570;DHT22;778;50.120;8.698;2022-07-17T02:43:03;17.80;63.00
1570;DHT22;778;50.120;8.698;2022-07-17T02:45:33;17.80;63.30
1570;DHT22;778;50.120;8.698;2022-07-17T02:48:02;17.80;63.20
1570;DHT22;778;50.120;8.698;2022-07-17T02:50:31;17.70;63.20
1570;DHT22;778;50.120;8.698;2022-07-17T02:53:00;17.60;63.20
1570;DHT22;778;50.120;8.698;2022-07-17T02:55:29;17.60;63.70
1570;DHT22;778;50.120;8.698;2022-07-17T02:57:57;17.70;63.30
1570;DHT22;778;50.120;8.698;2022-07-17T03:00:26;17.60;63.30
1570;DHT22;778;50.120;8.698;2022-07-17T03:02:56;17.60;63.40
1570;DHT22;778;50.120;8.698;2022-07-17T03:05:24;17.50;63.70
1570;DHT22;778;50.120;8.698;2022-07-17T03:07:53;17.40;63.90
1570;DHT22;778;50.120;8.698;2022-07-17T03:10:22;17.40;64.10
1570;DHT22;778;50.120;8.698;2022-07-17T03:12:50;17.40;64.20
1570;DHT22;778;50.120;8.698;2022-07-17T03:15:19;17.30;64.30
1570;DHT22;778;50.120;8.698;2022-07-17T03:17:48;17.30;64.80
1570;DHT22;778;50.120;8.698;2022-07-17T03:20:18;17.30;64.20
1570;DHT22;778;50.120;8.698;2022-07-17T03:22:47;17.30;64.30
1570;DHT22;778;50.120;8.698;2022-07-17T03:25:15;17.30;64.30
1570;DHT22;778;50.120;8.698;2022-07-17T03:27:44;17.30;64.40
1570;DHT22;778;50.120;8.698;2022-07-17T03:30:12;17.20;64.60
1570;DHT22;778;50.120;8.698;2022-07-17T03:32:41;17.10;64.80
1570;DHT22;778;50.120;8.698;2022-07-17T03:35:10;17.10;64.80
1570;DHT22;778;50.120;8.698;2022-07-17T03:37:39;17.20;64.90
1570;DHT22;778;50.120;8.698;2022-07-17T03:40:11;17.10;64.90
1570;DHT22;778;50.120;8.698;2022-07-17T03:42:39;17.00;65.30
1570;DHT22;778;50.120;8.698;2022-07-17T03:45:09;16.90;65.60
1570;DHT22;778;50.120;8.698;2022-07-17T03:47:37;16.90;65.60
1570;DHT22;778;50.120;8.698;2022-07-17T03:50:07;16.80;66.60
1570;DHT22;778;50.120;8.698;2022-07-17T03:52:35;16.70;66.20
1570;DHT22;778;50.120;8.698;2022-07-17T03:55:06;16.70;66.50
1570;DHT22;778;50.120;8.698;2022-07-17T03:57:35;16.70;66.70
1570;DHT22;778;50.120;8.698;2022-07-17T04:00:05;16.60;66.70
1570;DHT22;778;50.120;8.698;2022-07-17T04:02:37;16.60;66.90
1570;DHT22;778;50.120;8.698;2022-07-17T04:05:07;16.60;67.80
1570;DHT22;778;50.120;8.698;2022-07-17T04:07:36;16.50;67.40
1570;DHT22;778;50.120;8.698;2022-07-17T04:10:08;16.40;67.60
1570;DHT22;778;50.120;8.698;2022-07-17T04:12:38;16.40;67.90
1570;DHT22;778;50.120;8.698;2022-07-17T04:15:07;16.40;68.00
1570;DHT22;778;50.120;8.698;2022-07-17T04:17:36;16.40;68.20
1570;DHT22;778;50.120;8.698;2022-07-17T04:20:06;16.40;68.40
1570;DHT22;778;50.120;8.698;2022-07-17T04:22:35;16.40;68.70
1570;DHT22;778;50.120;8.698;2022-07-17T04:25:04;16.50;68.80
1570;DHT22;778;50.120;8.698;2022-07-17T04:27:34;16.70;68.30
1570;DHT22;778;50.120;8.698;2022-07-17T04:30:03;16.90;68.00
1570;DHT22;778;50.120;8.698;2022-07-17T04:32:32;17.20;67.50
1570;DHT22;778;50.120;8.698;2022-07-17T04:35:01;17.40;67.00
1570;DHT22;778;50.120;8.698;2022-07-17T04:37:30;17.60;66.70
1570;DHT22;778;50.120;8.698;2022-07-17T04:39:58;17.70;66.20
1570;DHT22;778;50.120;8.698;2022-07-17T04:42:28;18.00;65.90
1570;DHT22;778;50.120;8.698;2022-07-17T04:44:56;18.20;65.60
1570;DHT22;778;50.120;8.698;2022-07-17T04:47:25;18.20;65.20
1570;DHT22;778;50.120;8.698;2022-07-17T04:49:54;18.30;64.90
1570;DHT22;778;50.120;8.698;2022-07-17T04:52:22;18.40;64.80
1570;DHT22;778;50.120;8.698;2022-07-17T04:54:51;18.60;64.30
1570;DHT22;778;50.120;8.698;2022-07-17T04:57:20;18.60;64.70
1570;DHT22;778;50.120;8.698;2022-07-17T04:59:50;18.70;64.30
1570;DHT22;778;50.120;8.698;2022-07-17T05:02:18;18.70;64.20
1570;DHT22;778;50.120;8.698;2022-07-17T05:04:47;18.70;64.10
1570;DHT22;778;50.120;8.698;2022-07-17T05:07:15;18.60;64.10
1570;DHT22;778;50.120;8.698;2022-07-17T05:09:44;18.70;64.20
1570;DHT22;778;50.120;8.698;2022-07-17T05:12:12;18.70;64.10
1570;DHT22;778;50.120;8.698;2022-07-17T05:14:41;18.90;63.90
1570;DHT22;778;50.120;8.698;2022-07-17T05:17:11;18.90;63.80
1570;DHT22;778;50.120;8.698;2022-07-17T05:19:40;18.90;63.50
1570;DHT22;778;50.120;8.698;2022-07-17T05:22:08;19.00;63.40
1570;DHT22;778;50.120;8.698;2022-07-17T05:24:37;19.10;63.50
1570;DHT22;778;50.120;8.698;2022-07-17T05:27:05;19.20;63.30
1570;DHT22;778;50.120;8.698;2022-07-17T05:29:34;19.50;62.70
1570;DHT22;778;50.120;8.698;2022-07-17T05:32:03;19.50;62.50
1570;DHT22;778;50.120;8.698;2022-07-17T05:34:33;19.50;62.60
1570;DHT22;778;50.120;8.698;2022-07-17T05:37:02;19.50;62.20
1570;DHT22;778;50.120;8.698;2022-07-17T05:39:30;19.50;62.40
1570;DHT22;778;50.120;8.698;2022-07-17T05:41:59;19.50;62.40
1570;DHT22;778;50.120;8.698;2022-07-17T05:44:27;19.50;62.30
1570;DHT22;778;50.120;8.698;2022-07-17T05:46:56;19.40;62.50
1570;DHT22;778;50.120;8.698;2022-07-17T05:49:25;19.60;62.60
1570;DHT22;778;50.120;8.698;2022-07-17T05:51:55;19.70;62.30
1570;DHT22;778;50.120;8.698;2022-07-17T05:54:23;19.90;62.20
1570;DHT22;778;50.120;8.698;2022-07-17T05:56:52;20.00;61.50
1570;DHT22;778;50.120;8.698;2022-07-17T05:59:20;19.90;62.00
1570;DHT22;778;50.120;8.698;2022-07-17T06:01:49;19.90;62.00
1570;DHT22;778;50.120;8.698;2022-07-17T06:04:18;20.20;61.80
1570;DHT22;778;50.120;8.698;2022-07-17T06:06:46;20.40;61.60
1570;DHT22;778;50.120;8.698;2022-07-17T06:09:16;20.30;61.40
1570;DHT22;778;50.120;8.698;2022-07-17T06:11:45;20.40;61.00
1570;DHT22;778;50.120;8.698;2022-07-17T06:14:13;20.40;60.70
1570;DHT22;778;50.120;8.698;2022-07-17T06:16:42;20.30;61.30
1570;DHT22;778;50.120;8.698;2022-07-17T06:19:10;20.10;61.40
1570;DHT22;778;50.120;8.698;2022-07-17T06:21:39;20.00;61.70
1570;DHT22;778;50.120;8.698;2022-07-17T06:24:08;20.40;62.00
1570;DHT22;778;50.120;8.698;2022-07-17T06:26:37;20.80;61.20
1570;DHT22;778;50.120;8.698;2022-07-17T06:29:06;21.20;59.80
1570;DHT22;778;50.120;8.698;2022-07-17T06:31:35;21.30;59.80
1570;DHT22;778;50.120;8.698;2022-07-17T06:34:03;21.20;59.50
1570;DHT22;778;50.120;8.698;2022-07-17T06:36:32;21.40;59.60
1570;DHT22;778;50.120;8.698;2022-07-17T06:39:01;21.50;59.40
1570;DHT22;778;50.120;8.698;2022-07-17T06:41:29;21.70;59.20
1570;DHT22;778;50.120;8.698;2022-07-17T06:43:59;21.50;59.20
1570;DHT22;778;50.120;8.698;2022-07-17T06:46:28;21.50;59.40
1570;DHT22;778;50.120;8.698;2022-07-17T06:48:56;21.60;59.00
1570;DHT22;778;50.120;8.698;2022-07-17T06:51:25;22.00;59.00
1570;DHT22;778;50.120;8.698;2022-07-17T06:53:54;22.30;58.30
1570;DHT22;778;50.120;8.698;2022-07-17T06:56:22;22.40;58.00
1570;DHT22;778;50.120;8.698;2022-07-17T06:58:51;22.30;57.80
1570;DHT22;778;50.120;8.698;2022-07-17T07:01:21;22.70;57.60
1570;DHT22;778;50.120;8.698;2022-07-17T07:03:49;22.80;57.50
1570;DHT22;778;50.120;8.698;2022-07-17T07:06:18;22.70;57.10
1570;DHT22;778;50.120;8.698;2022-07-17T07:08:46;22.60;57.50
1570;DHT22;778;50.120;8.698;2022-07-17T07:11:15;22.60;57.60
1570;DHT22;778;50.120;8.698;2022-07-17T07:13:43;23.00;57.70
1570;DHT22;778;50.120;8.698;2022-07-17T07:16:12;23.00;56.90
1570;DHT22;778;50.120;8.698;2022-07-17T07:18:42;23.20;56.60
1570;DHT22;778;50.120;8.698;2022-07-17T07:21:10;23.40;56.40
1570;DHT22;778;50.120;8.698;2022-07-17T07:23:39;23.70;55.80
1570;DHT22;778;50.120;8.698;2022-07-17T07:26:08;23.70;55.60
1570;DHT22;778;50.120;8.698;2022-07-17T07:28:36;24.00;55.60
1570;DHT22;778;50.120;8.698;2022-07-17T07:31:05;23.80;55.30
1570;DHT22;778;50.120;8.698;2022-07-17T07:33:33;23.60;55.50
1570;DHT22;778;50.120;8.698;2022-07-17T07:36:04;23.70;55.50
1570;DHT22;778;50.120;8.698;2022-07-17T07:38:33;23.90;55.20
1570;DHT22;778;50.120;8.698;2022-07-17T07:41:02;24.00;54.90
1570;DHT22;778;50.120;8.698;2022-07-17T07:43:30;23.80;54.70
1570;DHT22;778;50.120;8.698;2022-07-17T07:45:59;24.00;54.20
1570;DHT22;778;50.120;8.698;2022-07-17T07:48:27;24.20;54.10
1570;DHT22;778;50.120;8.698;2022-07-17T07:50:56;24.20;54.30
1570;DHT22;778;50.120;8.698;2022-07-17T07:53:27;24.20;54.00
1570;DHT22;778;50.120;8.698;2022-07-17T07:55:55;24.60;53.50
1570;DHT22;778;50.120;8.698;2022-07-17T07:58:24;24.50;53.10
1570;DHT22;778;50.120;8.698;2022-07-17T08:00:52;24.70;53.00
1570;DHT22;778;50.120;8.698;2022-07-17T08:03:21;25.10;53.00
1570;DHT22;778;50.120;8.698;2022-07-17T08:05:51;25.30;52.80
1570;DHT22;778;50.120;8.698;2022-07-17T08:08:19;25.50;52.70
1570;DHT22;778;50.120;8.698;2022-07-17T08:10:49;25.60;52.20
1570;DHT22;778;50.120;8.698;2022-07-17T08:13:18;25.30;51.80
1570;DHT22;778;50.120;8.698;2022-07-17T08:15:47;25.20;52.70
1570;DHT22;778;50.120;8.698;2022-07-17T08:18:15;25.00;53.00
1570;DHT22;778;50.120;8.698;2022-07-17T08:20:44;24.80;53.10
1570;DHT22;778;50.120;8.698;2022-07-17T08:23:12;25.20;53.20
1570;DHT22;778;50.120;8.698;2022-07-17T08:25:41;25.70;52.40
1570;DHT22;778;50.120;8.698;2022-07-17T08:28:12;26.00;52.50
1570;DHT22;778;50.120;8.698;2022-07-17T08:30:41;26.20;51.10
1570;DHT22;778;50.120;8.698;2022-07-17T08:33:09;26.30;50.50
1570;DHT22;778;50.120;8.698;2022-07-17T08:35:38;26.60;50.20
1570;DHT22;778;50.120;8.698;2022-07-17T08:38:07;26.30;51.00
1570;DHT22;778;50.120;8.698;2022-07-17T08:40:36;26.80;49.90
1570;DHT22;778;50.120;8.698;2022-07-17T08:43:07;26.50;49.20
1570;DHT22;778;50.120;8.698;2022-07-17T08:45:39;26.60;49.80
1570;DHT22;778;50.120;8.698;2022-07-17T08:48:15;27.10;48.70
1570;DHT22;778;50.120;8.698;2022-07-17T08:50:45;26.70;48.20
1570;DHT22;778;50.120;8.698;2022-07-17T08:53:14;26.30;48.10
1570;DHT22;778;50.120;8.698;2022-07-17T08:55:43;26.60;48.70
1570;DHT22;778;50.120;8.698;2022-07-17T08:58:14;26.70;48.30
1570;DHT22;778;50.120;8.698;2022-07-17T09:00:45;26.80;47.70
1570;DHT22;778;50.120;8.698;2022-07-17T09:03:15;27.00;47.30
1570;DHT22;778;50.120;8.698;2022-07-17T09:05:45;27.10;47.40
1570;DHT22;778;50.120;8.698;2022-07-17T09:08:18;26.80;47.70
1570;DHT22;778;50.120;8.698;2022-07-17T09:10:48;27.10;46.90
1570;DHT22;778;50.120;8.698;2022-07-17T09:13:22;27.00;47.00
1570;DHT22;778;50.120;8.698;2022-07-17T09:15:56;27.10;47.10
1570;DHT22;778;50.120;8.698;2022-07-17T09:18:26;27.40;47.10
1570;DHT22;778;50.120;8.698;2022-07-17T09:20:55;27.80;45.90
1570;DHT22;778;50.120;8.698;2022-07-17T09:23:26;28.00;45.90
1570;DHT22;778;50.120;8.698;2022-07-17T09:25:56;27.40;45.70
1570;DHT22;778;50.120;8.698;2022-07-17T09:28:25;26.80;46.10
1570;DHT22;778;50.120;8.698;2022-07-17T09:30:55;27.20;45.60
1570;DHT22;778;50.120;8.698;2022-07-17T09:33:26;27.50;45.40
1570;DHT22;778;50.120;8.698;2022-07-17T09:35:57;27.90;45.30
1570;DHT22;778;50.120;8.698;2022-07-17T09:38:37;27.50;45.60
1570;DHT22;778;50.120;8.698;2022-07-17T09:41:09;27.00;45.70
1570;DHT22;778;50.120;8.698;2022-07-17T09:43:43;27.00;46.20
1570;DHT22;778;50.120;8.698;2022-07-17T09:46:17;27.20;46.10
1570;DHT22;778;50.120;8.698;2022-07-17T09:48:48;27.00;45.70
1570;DHT22;778;50.120;8.698;2022-07-17T09:51:25;27.20;45.60
1570;DHT22;778;50.120;8.698;2022-07-17T09:53:57;27.50;45.10
1570;DHT22;778;50.120;8.698;2022-07-17T09:56:28;27.30;45.00
1570;DHT22;778;50.120;8.698;2022-07-17T09:59:01;27.50;46.90
1570;DHT22;778;50.120;8.698;2022-07-17T10:01:33;27.80;44.90
1570;DHT22;778;50.120;8.698;2022-07-17T10:04:03;28.20;45.70
1570;DHT22;778;50.120;8.698;2022-07-17T10:06:32;28.20;44.70
1570;DHT22;778;50.120;8.698;2022-07-17T10:09:01;28.20;44.50
1570;DHT22;778;50.120;8.698;2022-07-17T10:11:34;27.90;44.70
1570;DHT22;778;50.120;8.698;2022-07-17T10:14:13;27.80;44.80
1570;DHT22;778;50.120;8.698;2022-07-17T10:16:45;27.60;45.00
1570;DHT22;778;50.120;8.698;2022-07-17T10:19:18;27.90;44.20
1570;DHT22;778;50.120;8.698;2022-07-17T10:21:55;28.10;44.00
1570;DHT22;778;50.120;8.698;2022-07-17T10:24:25;27.80;43.30
1570;DHT22;778;50.120;8.698;2022-07-17T10:26:54;27.50;44.50
1570;DHT22;778;50.120;8.698;2022-07-17T10:29:33;27.30;44.30
1570;DHT22;778;50.120;8.698;2022-07-17T10:32:14;27.50;44.60
1570;DHT22;778;50.120;8.698;2022-07-17T10:34:45;28.00;45.70
1570;DHT22;778;50.120;8.698;2022-07-17T10:37:22;28.40;43.50
1570;DHT22;778;50.120;8.698;2022-07-17T10:40:00;28.80;42.90
1570;DHT22;778;50.120;8.698;2022-07-17T10:42:42;28.80;42.50
1570;DHT22;778;50.120;8.698;2022-07-17T10:45:16;28.40;42.20
1570;DHT22;778;50.120;8.698;2022-07-17T10:47:49;28.10;43.40
1570;DHT22;778;50.120;8.698;2022-07-17T10:50:21;28.10;42.40
1570;DHT22;778;50.120;8.698;2022-07-17T10:53:03;27.70;42.10
1570;DHT22;778;50.120;8.698;2022-07-17T10:55:34;28.10;41.40
1570;DHT22;778;50.120;8.698;2022-07-17T10:58:12;28.20;41.10
1570;DHT22;778;50.120;8.698;2022-07-17T11:00:42;28.10;41.00
1570;DHT22;778;50.120;8.698;2022-07-17T11:03:12;28.00;40.90
1570;DHT22;778;50.120;8.698;2022-07-17T11:05:41;27.90;44.90
1570;DHT22;778;50.120;8.698;2022-07-17T11:08:09;28.20;39.70
1570;DHT22;778;50.120;8.698;2022-07-17T11:10:38;28.20;38.00
1570;DHT22;778;50.120;8.698;2022-07-17T11:13:08;28.30;38.50
1570;DHT22;778;50.120;8.698;2022-07-17T11:15:39;28.00;37.20
1570;DHT22;778;50.120;8.698;2022-07-17T11:18:15;27.90;37.70
1570;DHT22;778;50.120;8.698;2022-07-17T11:20:49;28.10;42.50
1570;DHT22;778;50.120;8.698;2022-07-17T11:23:20;28.40;39.70
1570;DHT22;778;50.120;8.698;2022-07-17T11:25:59;28.80;39.90
1570;DHT22;778;50.120;8.698;2022-07-17T11:28:37;29.00;39.50
1570;DHT22;778;50.120;8.698;2022-07-17T11:31:20;28.70;42.90
1570;DHT22;778;50.120;8.698;2022-07-17T11:33:56;28.90;40.50
1570;DHT22;778;50.120;8.698;2022-07-17T11:36:28;28.70;39.00
1570;DHT22;778;50.120;8.698;2022-07-17T11:39:01;28.90;39.60
1570;DHT22;778;50.120;8.698;2022-07-17T11:41:33;28.70;39.00
1570;DHT22;778;50.120;8.698;2022-07-17T11:44:04;28.60;38.10
1570;DHT22;778;50.120;8.698;2022-07-17T11:46:34;28.50;37.50
1570;DHT22;778;50.120;8.698;2022-07-17T11:49:04;28.60;36.50
1570;DHT22;778;50.120;8.698;2022-07-17T11:51:39;28.30;35.50
1570;DHT22;778;50.120;8.698;2022-07-17T11:54:10;28.10;36.50
1570;DHT22;778;50.120;8.698;2022-07-17T11:56:41;28.20;37.10
1570;DHT22;778;50.120;8.698;2022-07-17T11:59:10;28.40;36.30
1570;DHT22;778;50.120;8.698;2022-07-17T12:01:43;28.10;38.20
1570;DHT22;778;50.120;8.698;2022-07-17T12:04:15;28.20;37.70
1570;DHT22;778;50.120;8.698;2022-07-17T12:06:44;28.00;37.60
1570;DHT22;778;50.120;8.698;2022-07-17T12:09:13;27.80;41.30
1570;DHT22;778;50.120;8.698;2022-07-17T12:11:47;28.10;41.60
1570;DHT22;778;50.120;8.698;2022-07-17T12:14:17;27.80;43.90
1570;DHT22;778;50.120;8.698;2022-07-17T12:16:46;27.70;41.30
1570;DHT22;778;50.120;8.698;2022-07-17T12:19:17;27.70;40.50
1570;DHT22;778;50.120;8.698;2022-07-17T12:21:52;28.00;40.00
1570;DHT22;778;50.120;8.698;2022-07-17T12:24:26;28.20;37.80
1570;DHT22;778;50.120;8.698;2022-07-17T12:26:57;27.80;35.40
1570;DHT22;778;50.120;8.698;2022-07-17T12:29:27;28.00;37.50
1570;DHT22;778;50.120;8.698;2022-07-17T12:32:03;28.00;37.30
1570;DHT22;778;50.120;8.698;2022-07-17T12:34:36;27.90;34.90
1570;DHT22;778;50.120;8.698;2022-07-17T12:37:05;27.80;36.10
1570;DHT22;778;50.120;8.698;2022-07-17T12:39:34;27.60;36.90
1570;DHT22;778;50.120;8.698;2022-07-17T12:42:03;27.60;36.30
1570;DHT22;778;50.120;8.698;2022-07-17T12:44:32;27.60;36.90
1570;DHT22;778;50.120;8.698;2022-07-17T12:47:01;27.80;34.70
1570;DHT22;778;50.120;8.698;2022-07-17T12:49:30;27.70;33.80
1570;DHT22;778;50.120;8.698;2022-07-17T12:52:00;27.60;34.40
1570;DHT22;778;50.120;8.698;2022-07-17T12:54:29;27.50;34.60
1570;DHT22;778;50.120;8.698;2022-07-17T12:56:58;27.30;34.20
1570;DHT22;778;50.120;8.698;2022-07-17T12:59:27;27.10;36.50
1570;DHT22;778;50.120;8.698;2022-07-17T13:01:56;27.20;34.50
1570;DHT22;778;50.120;8.698;2022-07-17T13:04:25;27.20;34.40
1570;DHT22;778;50.120;8.698;2022-07-17T13:06:54;27.20;35.40
1570;DHT22;778;50.120;8.698;2022-07-17T13:09:23;27.00;35.70
1570;DHT22;778;50.120;8.698;2022-07-17T13:11:52;27.10;36.30
1570;DHT22;778;50.120;8.698;2022-07-17T13:14:21;27.20;36.50
1570;DHT22;778;50.120;8.698;2022-07-17T13:16:50;27.20;37.70
1570;DHT22;778;50.120;8.698;2022-07-17T13:19:19;27.30;36.60
1570;DHT22;778;50.120;8.698;2022-07-17T13:21:49;27.30;39.30
1570;DHT22;778;50.120;8.698;2022-07-17T13:24:18;27.20;39.30
1570;DHT22;778;50.120;8.698;2022-07-17T13:26:48;27.00;40.00
1570;DHT22;778;50.120;8.698;2022-07-17T13:29:17;27.00;36.60
1570;DHT22;778;50.120;8.698;2022-07-17T13:31:46;27.30;35.20
1570;DHT22;778;50.120;8.698;2022-07-17T13:34:22;26.80;39.50
1570;DHT22;778;50.120;8.698;2022-07-17T13:36:50;27.20;35.00
1570;DHT22;778;50.120;8.698;2022-07-17T13:39:19;27.00;37.90
1570;DHT22;778;50.120;8.698;2022-07-17T13:41:49;26.80;40.60
1570;DHT22;778;50.120;8.698;2022-07-17T13:44:18;26.70;38.30
1570;DHT22;778;50.120;8.698;2022-07-17T13:46:46;26.80;34.20
1570;DHT22;778;50.120;8.698;2022-07-17T13:49:15;27.00;34.40
1570;DHT22;778;50.120;8.698;2022-07-17T13:51:44;26.90;40.10
1570;DHT22;778;50.120;8.698;2022-07-17T13:54:12;26.60;39.20
1570;DHT22;778;50.120;8.698;2022-07-17T13:56:41;26.40;38.70
1570;DHT22;778;50.120;8.698;2022-07-17T13:59:11;26.40;41.10
1570;DHT22;778;50.120;8.698;2022-07-17T14:01:39;26.40;41.20
1570;DHT22;778;50.120;8.698;2022-07-17T14:04:08;27.00;35.00
1570;DHT22;778;50.120;8.698;2022-07-17T14:06:37;27.10;35.30
1570;DHT22;778;50.120;8.698;2022-07-17T14:09:05;27.10;36.50
1570;DHT22;778;50.120;8.698;2022-07-17T14:11:35;27.10;36.70
1570;DHT22;778;50.120;8.698;2022-07-17T14:14:04;27.10;35.50
1570;DHT22;778;50.120;8.698;2022-07-17T14:16:34;27.30;35.00
1570;DHT22;778;50.120;8.698;2022-07-17T14:19:03;27.40;36.80
1570;DHT22;778;50.120;8.698;2022-07-17T14:21:33;27.40;35.00
1570;DHT22;778;50.120;8.698;2022-07-17T14:24:03;27.50;35.40
1570;DHT22;778;50.120;8.698;2022-07-17T14:26:32;27.30;39.30
1570;DHT22;778;50.120;8.698;2022-07-17T14:29:02;27.20;35.00
1570;DHT22;778;50.120;8.698;2022-07-17T14:31:31;27.40;35.20
1570;DHT22;778;50.120;8.698;2022-07-17T14:34:10;27.50;37.10
1570;DHT22;778;50.120;8.698;2022-07-17T14:36:39;27.50;38.00
1570;DHT22;778;50.120;8.698;2022-07-17T14:39:08;27.60;34.30
1570;DHT22;778;50.120;8.698;2022-07-17T14:41:37;27.60;34.10
1570;DHT22;778;50.120;8.698;2022-07-17T14:44:06;27.60;34.20
1570;DHT22;778;50.120;8.698;2022-07-17T14:46:34;27.30;38.20
1570;DHT22;778;50.120;8.698;2022-07-17T14:49:03;27.40;36.80
1570;DHT22;778;50.120;8.698;2022-07-17T14:51:33;27.40;39.20
1570;DHT22;778;50.120;8.698;2022-07-17T14:54:02;27.70;35.50
1570;DHT22;778;50.120;8.698;2022-07-17T14:56:30;27.70;38.10
1570;DHT22;778;50.120;8.698;2022-07-17T14:58:59;27.70;35.70
1570;DHT22;778;50.120;8.698;2022-07-17T15:01:27;27.60;38.70
1570;DHT22;778;50.120;8.698;2022-07-17T15:03:56;27.60;34.70
1570;DHT22;778;50.120;8.698;2022-07-17T15:06:24;27.70;34.20
1570;DHT22;778;50.120;8.698;2022-07-17T15:08:54;27.70;35.20
1570;DHT22;778;50.120;8.698;2022-07-17T15:11:23;27.40;38.40
1570;DHT22;778;50.120;8.698;2022-07-17T15:13:52;27.60;37.10
1570;DHT22;778;50.120;8.698;2022-07-17T15:16:20;27.70;36.20
1570;DHT22;778;50.120;8.698;2022-07-17T15:18:49;28.00;35.00
1570;DHT22;778;50.120;8.698;2022-07-17T15:21:18;27.50;38.80
1570;DHT22;778;50.120;8.698;2022-07-17T15:24:07;27.20;40.30
1570;DHT22;778;50.120;8.698;2022-07-17T15:26:36;27.30;39.70
1570;DHT22;778;50.120;8.698;2022-07-17T15:29:13;27.40;36.60
1570;DHT22;778;50.120;8.698;2022-07-17T15:31:42;27.60;36.10
1570;DHT22;778;50.120;8.698;2022-07-17T15:34:11;27.70;36.30
1570;DHT22;778;50.120;8.698;2022-07-17T15:36:40;27.60;39.10
1570;DHT22;778;50.120;8.698;2022-07-17T15:39:11;27.60;39.70
1570;DHT22;778;50.120;8.698;2022-07-17T15:41:40;27.40;40.90
1570;DHT22;778;50.120;8.698;2022-07-17T15:44:08;27.50;37.50
1570;DHT22;778;50.120;8.698;2022-07-17T15:46:37;27.50;41.00
1570;DHT22;778;50.120;8.698;2022-07-17T15:49:06;27.70;37.50
1570;DHT22;778;50.120;8.698;2022-07-17T15:51:34;27.70;40.20
1570;DHT22;778;50.120;8.698;2022-07-17T15:54:06;27.90;38.90
1570;DHT22;778;50.120;8.698;2022-07-17T15:56:37;27.80;38.80
1570;DHT22;778;50.120;8.698;2022-07-17T15:59:06;27.90;37.70
1570;DHT22;778;50.120;8.698;2022-07-17T16:01:35;28.00;36.60
1570;DHT22;778;50.120;8.698;2022-07-17T16:04:04;28.10;37.50
1570;DHT22;778;50.120;8.698;2022-07-17T16:06:32;27.80;39.40
1570;DHT22;778;50.120;8.698;2022-07-17T16:09:02;27.80;39.50
1570;DHT22;778;50.120;8.698;2022-07-17T16:11:32;27.80;36.70
1570;DHT22;778;50.120;8.698;2022-07-17T16:14:02;27.90;37.30
1570;DHT22;778;50.120;8.698;2022-07-17T16:16:31;28.00;36.60
1570;DHT22;778;50.120;8.698;2022-07-17T16:19:00;27.80;38.10
1570;DHT22;778;50.120;8.698;2022-07-17T16:21:28;27.90;37.10
1570;DHT22;778;50.120;8.698;2022-07-17T16:24:04;27.90;38.90
1570;DHT22;778;50.120;8.698;2022-07-17T16:26:33;27.70;41.10
1570;DHT22;778;50.120;8.698;2022-07-17T16:29:03;27.80;37.60
1570;DHT22;778;50.120;8.698;2022-07-17T16:31:32;27.90;38.00
1570;DHT22;778;50.120;8.698;2022-07-17T16:34:00;27.90;37.20